Finnhawk — OJNL — position and weather

sailwx.info

Track history (hours):
 
Tides and Currents Weather Stations Pressure Air Temp Water Temp Dewpoint Dewpoint Depression Visibility Wind Speed Wind Dir Waves Ship Positions

Finnhawk

Last reported at 2017-Sep-24 02:01 UTC. Time now 2017-Sep-24 03:26 UTC.
Position N 54°51' E 013°15'.

Length 163 m; draft 5.9 m.

Type: Ship. MMSI: 230007000.

Date/timePositionNaut miles runAvg speedWind from/ knotsBaromVisibWave heightAir tempDewpointWater temp
2017-Sep-24 02:01N 54°51' E 013°15'018.9
2017-Sep-24 02:00N 54°51' E 013°14'918.8
2017-Sep-24 01:30N 54°48' E 012°59'2318.4
2017-Sep-24 00:14N 54°36' E 012°24'418.1
2017-Sep-24 00:00N 54°33' E 012°18'918.4
2017-Sep-23 23:30N 54°25' E 012°12'1316.3
2017-Sep-23 22:44N 54°13' E 012°05'4 1.7
2017-Sep-23 20:06N 54°09' E 012°06'0 0.0
2017-Sep-23 19:45N 54°09' E 012°06'49111.8
2017-Sep-22 02:00N 59°43' E 023°04'28015.7
2017-Sep-21 08:09N 56°15' E 017°11'216.2
2017-Sep-21 08:00N 56°13' E 017°08'816.2
2017-Sep-21 07:30N 56°08' E 016°56'816.2
2017-Sep-21 07:00N 56°04' E 016°44'816.1
2017-Sep-21 06:30N 55°59' E 016°32'816.1
2017-Sep-21 06:00N 55°55' E 016°20'816.0
2017-Sep-21 05:30N 55°52' E 016°07'816.0
2017-Sep-21 05:00N 55°47' E 015°55'815.9
2017-Sep-21 04:30N 55°44' E 015°43'816.0
2017-Sep-21 04:00N 55°40' E 015°30'815.9
2017-Sep-21 03:30N 55°36' E 015°17'816.1
2017-Sep-21 03:00N 55°32' E 015°05'816.3
2017-Sep-21 02:30N 55°28' E 014°52'816.1
2017-Sep-21 02:00N 55°24' E 014°41'816.2
2017-Sep-21 01:30N 55°18' E 014°31'816.4
2017-Sep-21 01:00N 55°11' E 014°22'815.8
2017-Sep-21 00:30N 55°05' E 014°13'815.5
2017-Sep-20 23:58N 55°00' E 014°02'1516.0
2017-Sep-20 23:01N 54°55' E 013°37'2016.2
2017-Sep-20 21:47N 54°49' E 013°04'516.3
2017-Sep-20 21:30N 54°47' E 012°57'816.2
2017-Sep-20 21:00N 54°44' E 012°44'1816.1
2017-Sep-20 19:55N 54°34' E 012°19'27 6.1
2017-Sep-20 15:29N 54°08' E 012°06'0 0.0
2017-Sep-20 12:14N 54°08' E 012°06'0 0.0
2017-Sep-20 11:56N 54°08' E 012°06'0 0.0
2017-Sep-20 09:17N 54°08' E 012°06'8 1.0
2017-Sep-20 01:32N 54°15' E 012°02'0 8.9
2017-Sep-20 01:31N 54°16' E 012°02'714.3
2017-Sep-20 01:01N 54°22' E 012°07'6316.5
2017-Sep-19 21:13N 54°58' E 013°35'1817.2
2017-Sep-19 20:11N 55°04' E 014°05'317.4
2017-Sep-19 20:00N 55°06' E 014°09'917.4
2017-Sep-19 19:30N 55°13' E 014°19'817.2
2017-Sep-19 19:00N 55°20' E 014°28'917.2
2017-Sep-19 18:31N 55°26' E 014°38'917.9
2017-Sep-19 18:00N 55°31' E 014°51'917.8
2017-Sep-19 17:31N 55°35' E 015°05'917.5
2017-Sep-19 17:01N 55°39' E 015°19'917.4
2017-Sep-19 16:31N 55°43' E 015°32'917.5
2017-Sep-19 16:01N 55°48' E 015°46'917.5
2017-Sep-19 15:31N 55°52' E 015°59'917.5
2017-Sep-19 15:00N 55°57' E 016°12'917.4
2017-Sep-19 14:31N 56°02' E 016°25'917.0
2017-Sep-19 14:00N 56°06' E 016°39'917.3
2017-Sep-19 13:30N 56°11' E 016°52'27917.3
2017-Sep-18 21:24N 59°35' E 022°48'615.6
2017-Sep-18 21:01N 59°39' E 022°58'612.1
2017-Sep-18 20:30N 59°45' E 023°03'5 0.3
2017-Sep-18 02:27N 59°49' E 022°57'816.6
2017-Sep-18 02:00N 59°42' E 023°04'27518.5
2017-Sep-17 11:08N 56°17' E 017°19'318.7
2017-Sep-17 10:59N 56°15' E 017°15'918.8
2017-Sep-17 10:30N 56°09' E 017°02'918.8
2017-Sep-17 10:00N 56°03' E 016°49'918.7
2017-Sep-17 09:30N 55°58' E 016°35'918.9
2017-Sep-17 09:01N 55°54' E 016°20'918.7
2017-Sep-17 08:30N 55°50' E 016°05'918.7
2017-Sep-17 08:00N 55°45' E 015°51'918.8
2017-Sep-17 07:30N 55°40' E 015°36'918.8
2017-Sep-17 07:00N 55°36' E 015°22'918.7
2017-Sep-17 06:30N 55°31' E 015°07'918.7
2017-Sep-17 06:00N 55°26' E 014°53'918.9
2017-Sep-17 05:30N 55°22' E 014°38'1018.9
2017-Sep-17 05:00N 55°15' E 014°28'918.7
2017-Sep-17 04:30N 55°08' E 014°18'918.8
2017-Sep-17 04:00N 55°01' E 014°05'5118.7
2017-Sep-17 01:17N 54°44' E 012°42'518.9
2017-Sep-17 01:00N 54°41' E 012°34'918.9
2017-Sep-17 00:30N 54°36' E 012°21'918.4
2017-Sep-17 00:00N 54°27' E 012°13'1019.0
2017-Sep-16 23:29N 54°19' E 012°05'912.2
2017-Sep-16 22:45N 54°10' E 012°06'1 5.0
2017-Sep-16 22:30N 54°09' E 012°06'0 0.0
2017-Sep-16 21:43N 54°09' E 012°06'0 0.0
2017-Sep-16 21:28N 54°09' E 012°06'0 0.0
2017-Sep-16 18:31N 54°09' E 012°06'0 0.1
2017-Sep-16 18:28N 54°09' E 012°06'0 0.0
2017-Sep-16 17:58N 54°09' E 012°06'0 0.0
2017-Sep-16 16:31N 54°09' E 012°06'0 0.0
2017-Sep-16 16:22N 54°09' E 012°06'0 0.0
2017-Sep-16 15:31N 54°09' E 012°06'0 0.0
2017-Sep-16 15:28N 54°09' E 012°06'0 0.0
2017-Sep-16 14:58N 54°09' E 012°06'0 0.2
2017-Sep-16 14:30N 54°09' E 012°06'2 4.1
2017-Sep-16 14:00N 54°11' E 012°06'611.5
2017-Sep-16 13:30N 54°16' E 012°02'8717.2
2017-Sep-16 08:28N 55°05' E 014°05'818.3
2017-Sep-16 08:00N 55°12' E 014°15'918.5
2017-Sep-16 07:30N 55°19' E 014°25'918.6
2017-Sep-16 07:00N 55°26' E 014°36'917.6
2017-Sep-16 06:28N 55°30' E 014°50'817.6
2017-Sep-16 06:00N 55°34' E 015°03'918.0
2017-Sep-16 05:30N 55°39' E 015°17'918.2
2017-Sep-16 05:00N 55°44' E 015°30'918.4
2017-Sep-16 04:30N 55°48' E 015°45'918.5
2017-Sep-16 04:00N 55°53' E 015°59'918.5
2017-Sep-16 03:30N 55°57' E 016°14'918.5
2017-Sep-16 03:00N 56°02' E 016°28'918.6
2017-Sep-16 02:30N 56°07' E 016°42'29618.3
2017-Sep-15 10:20N 59°42' E 023°03'617.4
2017-Sep-15 10:00N 59°47' E 022°59'1 0.2
2017-Sep-15 02:25N 59°48' E 022°58'615.8
2017-Sep-15 02:00N 59°43' E 023°05'28816.9
2017-Sep-14 08:58N 56°10' E 016°59'816.5
2017-Sep-14 08:30N 56°05' E 016°48'816.6
2017-Sep-14 08:00N 56°00' E 016°36'816.5
2017-Sep-14 07:30N 55°56' E 016°24'816.6
2017-Sep-14 07:00N 55°52' E 016°11'816.8
2017-Sep-14 06:30N 55°48' E 015°58'816.7
2017-Sep-14 06:00N 55°44' E 015°44'816.9
2017-Sep-14 05:30N 55°40' E 015°31'816.9
2017-Sep-14 05:00N 55°36' E 015°18'916.8
2017-Sep-14 04:30N 55°32' E 015°05'917.0
2017-Sep-14 04:00N 55°28' E 014°52'816.9
2017-Sep-14 03:31N 55°23' E 014°40'917.4
2017-Sep-14 03:00N 55°16' E 014°30'917.3
2017-Sep-14 02:30N 55°09' E 014°20'  
Track history (hours):
 
Tides and Currents Weather Stations Pressure Air Temp Water Temp Dewpoint Dewpoint Depression Visibility Wind Speed Wind Dir Waves Ship Positions

Finnhawk

Last reported at 2017-Sep-24 02:01 UTC. Time now 2017-Sep-24 03:26 UTC.
Position N 54°51' E 013°15'.

Length 163 m; draft 5.9 m.

Type: Ship. MMSI: 230007000.

Date/timePositionNaut miles runAvg speedWind from/ knotsBaromVisibWave heightAir tempDewpointWater temp
2017-Sep-24 02:01N 54°51' E 013°15'018.9
2017-Sep-24 02:00N 54°51' E 013°14'918.8
2017-Sep-24 01:30N 54°48' E 012°59'2318.4
2017-Sep-24 00:14N 54°36' E 012°24'418.1
2017-Sep-24 00:00N 54°33' E 012°18'918.4
2017-Sep-23 23:30N 54°25' E 012°12'1316.3
2017-Sep-23 22:44N 54°13' E 012°05'4 1.7
2017-Sep-23 20:06N 54°09' E 012°06'0 0.0
2017-Sep-23 19:45N 54°09' E 012°06'49111.8
2017-Sep-22 02:00N 59°43' E 023°04'28015.7
2017-Sep-21 08:09N 56°15' E 017°11'216.2
2017-Sep-21 08:00N 56°13' E 017°08'816.2
2017-Sep-21 07:30N 56°08' E 016°56'816.2
2017-Sep-21 07:00N 56°04' E 016°44'816.1
2017-Sep-21 06:30N 55°59' E 016°32'816.1
2017-Sep-21 06:00N 55°55' E 016°20'816.0
2017-Sep-21 05:30N 55°52' E 016°07'816.0
2017-Sep-21 05:00N 55°47' E 015°55'815.9
2017-Sep-21 04:30N 55°44' E 015°43'816.0
2017-Sep-21 04:00N 55°40' E 015°30'815.9
2017-Sep-21 03:30N 55°36' E 015°17'816.1
2017-Sep-21 03:00N 55°32' E 015°05'816.3
2017-Sep-21 02:30N 55°28' E 014°52'816.1
2017-Sep-21 02:00N 55°24' E 014°41'816.2
2017-Sep-21 01:30N 55°18' E 014°31'816.4
2017-Sep-21 01:00N 55°11' E 014°22'815.8
2017-Sep-21 00:30N 55°05' E 014°13'815.5
2017-Sep-20 23:58N 55°00' E 014°02'1516.0
2017-Sep-20 23:01N 54°55' E 013°37'2016.2
2017-Sep-20 21:47N 54°49' E 013°04'516.3
2017-Sep-20 21:30N 54°47' E 012°57'816.2
2017-Sep-20 21:00N 54°44' E 012°44'1816.1
2017-Sep-20 19:55N 54°34' E 012°19'27 6.1
2017-Sep-20 15:29N 54°08' E 012°06'0 0.0
2017-Sep-20 12:14N 54°08' E 012°06'0 0.0
2017-Sep-20 11:56N 54°08' E 012°06'0 0.0
2017-Sep-20 09:17N 54°08' E 012°06'8 1.0
2017-Sep-20 01:32N 54°15' E 012°02'0 8.9
2017-Sep-20 01:31N 54°16' E 012°02'714.3
2017-Sep-20 01:01N 54°22' E 012°07'6316.5
2017-Sep-19 21:13N 54°58' E 013°35'1817.2
2017-Sep-19 20:11N 55°04' E 014°05'317.4
2017-Sep-19 20:00N 55°06' E 014°09'917.4
2017-Sep-19 19:30N 55°13' E 014°19'817.2
2017-Sep-19 19:00N 55°20' E 014°28'917.2
2017-Sep-19 18:31N 55°26' E 014°38'917.9
2017-Sep-19 18:00N 55°31' E 014°51'917.8
2017-Sep-19 17:31N 55°35' E 015°05'917.5
2017-Sep-19 17:01N 55°39' E 015°19'917.4
2017-Sep-19 16:31N 55°43' E 015°32'917.5
2017-Sep-19 16:01N 55°48' E 015°46'917.5
2017-Sep-19 15:31N 55°52' E 015°59'917.5
2017-Sep-19 15:00N 55°57' E 016°12'917.4
2017-Sep-19 14:31N 56°02' E 016°25'917.0
2017-Sep-19 14:00N 56°06' E 016°39'917.3
2017-Sep-19 13:30N 56°11' E 016°52'27917.3
2017-Sep-18 21:24N 59°35' E 022°48'615.6
2017-Sep-18 21:01N 59°39' E 022°58'612.1
2017-Sep-18 20:30N 59°45' E 023°03'5 0.3
2017-Sep-18 02:27N 59°49' E 022°57'816.6
2017-Sep-18 02:00N 59°42' E 023°04'27518.5
2017-Sep-17 11:08N 56°17' E 017°19'318.7
2017-Sep-17 10:59N 56°15' E 017°15'918.8
2017-Sep-17 10:30N 56°09' E 017°02'918.8
2017-Sep-17 10:00N 56°03' E 016°49'918.7
2017-Sep-17 09:30N 55°58' E 016°35'918.9
2017-Sep-17 09:01N 55°54' E 016°20'918.7
2017-Sep-17 08:30N 55°50' E 016°05'918.7
2017-Sep-17 08:00N 55°45' E 015°51'918.8
2017-Sep-17 07:30N 55°40' E 015°36'918.8
2017-Sep-17 07:00N 55°36' E 015°22'918.7
2017-Sep-17 06:30N 55°31' E 015°07'918.7
2017-Sep-17 06:00N 55°26' E 014°53'918.9
2017-Sep-17 05:30N 55°22' E 014°38'1018.9
2017-Sep-17 05:00N 55°15' E 014°28'918.7
2017-Sep-17 04:30N 55°08' E 014°18'918.8
2017-Sep-17 04:00N 55°01' E 014°05'5118.7
2017-Sep-17 01:17N 54°44' E 012°42'518.9
2017-Sep-17 01:00N 54°41' E 012°34'918.9
2017-Sep-17 00:30N 54°36' E 012°21'918.4
2017-Sep-17 00:00N 54°27' E 012°13'1019.0
2017-Sep-16 23:29N 54°19' E 012°05'912.2
2017-Sep-16 22:45N 54°10' E 012°06'1 5.0
2017-Sep-16 22:30N 54°09' E 012°06'0 0.0
2017-Sep-16 21:43N 54°09' E 012°06'0 0.0
2017-Sep-16 21:28N 54°09' E 012°06'0 0.0
2017-Sep-16 18:31N 54°09' E 012°06'0 0.1
2017-Sep-16 18:28N 54°09' E 012°06'0 0.0
2017-Sep-16 17:58N 54°09' E 012°06'0 0.0
2017-Sep-16 16:31N 54°09' E 012°06'0 0.0
2017-Sep-16 16:22N 54°09' E 012°06'0 0.0
2017-Sep-16 15:31N 54°09' E 012°06'0 0.0
2017-Sep-16 15:28N 54°09' E 012°06'0 0.0
2017-Sep-16 14:58N 54°09' E 012°06'0 0.2
2017-Sep-16 14:30N 54°09' E 012°06'2 4.1
2017-Sep-16 14:00N 54°11' E 012°06'611.5
2017-Sep-16 13:30N 54°16' E 012°02'8717.2
2017-Sep-16 08:28N 55°05' E 014°05'818.3
2017-Sep-16 08:00N 55°12' E 014°15'918.5
2017-Sep-16 07:30N 55°19' E 014°25'918.6
2017-Sep-16 07:00N 55°26' E 014°36'917.6
2017-Sep-16 06:28N 55°30' E 014°50'817.6
2017-Sep-16 06:00N 55°34' E 015°03'918.0
2017-Sep-16 05:30N 55°39' E 015°17'918.2
2017-Sep-16 05:00N 55°44' E 015°30'918.4
2017-Sep-16 04:30N 55°48' E 015°45'918.5
2017-Sep-16 04:00N 55°53' E 015°59'918.5
2017-Sep-16 03:30N 55°57' E 016°14'918.5
2017-Sep-16 03:00N 56°02' E 016°28'918.6
2017-Sep-16 02:30N 56°07' E 016°42'29618.3
2017-Sep-15 10:20N 59°42' E 023°03'617.4
2017-Sep-15 10:00N 59°47' E 022°59'1 0.2
2017-Sep-15 02:25N 59°48' E 022°58'615.8
2017-Sep-15 02:00N 59°43' E 023°05'28816.9
2017-Sep-14 08:58N 56°10' E 016°59'816.5
2017-Sep-14 08:30N 56°05' E 016°48'816.6
2017-Sep-14 08:00N 56°00' E 016°36'816.5
2017-Sep-14 07:30N 55°56' E 016°24'816.6
2017-Sep-14 07:00N 55°52' E 016°11'816.8
2017-Sep-14 06:30N 55°48' E 015°58'816.7
2017-Sep-14 06:00N 55°44' E 015°44'816.9
2017-Sep-14 05:30N 55°40' E 015°31'816.9
2017-Sep-14 05:00N 55°36' E 015°18'916.8
2017-Sep-14 04:30N 55°32' E 015°05'917.0
2017-Sep-14 04:00N 55°28' E 014°52'816.9
2017-Sep-14 03:31N 55°23' E 014°40'917.4
2017-Sep-14 03:00N 55°16' E 014°30'917.3
2017-Sep-14 02:30N 55°09' E 014°20'  

Dump ship's entire track history